sensor_id;sensor_type;location;lat;lon;timestamp;pressure;altitude;pressure_sealevel;temperature;humidity
49759;BME280;35654;46.080;11.118;2023-02-04T00:02:01;99756.03;;;4.48;72.54
49759;BME280;35654;46.080;11.118;2023-02-04T00:04:27;99746.50;;;4.45;72.50
49759;BME280;35654;46.080;11.118;2023-02-04T00:06:52;99751.44;;;4.65;72.38
49759;BME280;35654;46.080;11.118;2023-02-04T00:09:17;99761.38;;;4.93;71.48
49759;BME280;35654;46.080;11.118;2023-02-04T00:11:42;99749.03;;;5.02;70.88
49759;BME280;35654;46.080;11.118;2023-02-04T00:14:08;99753.75;;;5.11;71.11
49759;BME280;35654;46.080;11.118;2023-02-04T00:16:34;99750.50;;;5.31;70.79
49759;BME280;35654;46.080;11.118;2023-02-04T00:18:59;99749.13;;;5.50;69.90
49759;BME280;35654;46.080;11.118;2023-02-04T00:21:24;99762.00;;;5.60;68.72
49759;BME280;35654;46.080;11.118;2023-02-04T00:23:49;99757.47;;;5.65;69.41
49759;BME280;35654;46.080;11.118;2023-02-04T00:26:15;99760.81;;;5.94;69.78
49759;BME280;35654;46.080;11.118;2023-02-04T00:28:40;99754.63;;;5.99;68.77
49759;BME280;35654;46.080;11.118;2023-02-04T00:31:05;99736.38;;;5.94;68.26
49759;BME280;35654;46.080;11.118;2023-02-04T00:33:31;99758.53;;;6.08;68.51
49759;BME280;35654;46.080;11.118;2023-02-04T00:35:56;99747.28;;;6.26;68.73
49759;BME280;35654;46.080;11.118;2023-02-04T00:38:21;99749.34;;;6.45;68.26
49759;BME280;35654;46.080;11.118;2023-02-04T00:40:47;99745.88;;;6.50;68.67
49759;BME280;35654;46.080;11.118;2023-02-04T00:43:12;99745.41;;;6.58;68.80
49759;BME280;35654;46.080;11.118;2023-02-04T00:45:37;99745.50;;;6.73;67.97
49759;BME280;35654;46.080;11.118;2023-02-04T00:48:02;99743.91;;;6.77;68.43
49759;BME280;35654;46.080;11.118;2023-02-04T00:50:28;99750.47;;;6.81;68.90
49759;BME280;35654;46.080;11.118;2023-02-04T00:52:53;99763.97;;;7.03;67.95
49759;BME280;35654;46.080;11.118;2023-02-04T00:55:18;99756.06;;;7.01;67.48
49759;BME280;35654;46.080;11.118;2023-02-04T00:57:44;99755.81;;;7.03;68.64
49759;BME280;35654;46.080;11.118;2023-02-04T01:00:11;99764.03;;;7.13;67.98
49759;BME280;35654;46.080;11.118;2023-02-04T01:02:37;99768.13;;;7.16;67.90
49759;BME280;35654;46.080;11.118;2023-02-04T01:05:04;99771.97;;;7.20;67.69
49759;BME280;35654;46.080;11.118;2023-02-04T01:07:29;99777.28;;;7.41;67.41
49759;BME280;35654;46.080;11.118;2023-02-04T01:09:55;99770.81;;;7.57;66.47
49759;BME280;35654;46.080;11.118;2023-02-04T01:12:20;99768.16;;;7.68;65.91
49759;BME280;35654;46.080;11.118;2023-02-04T01:14:48;99763.19;;;7.59;66.76
49759;BME280;35654;46.080;11.118;2023-02-04T01:17:14;99783.34;;;7.53;66.48
49759;BME280;35654;46.080;11.118;2023-02-04T01:19:41;99783.25;;;7.38;66.98
49759;BME280;35654;46.080;11.118;2023-02-04T01:22:08;99776.13;;;7.32;67.07
49759;BME280;35654;46.080;11.118;2023-02-04T01:24:34;99771.78;;;7.31;68.14
49759;BME280;35654;46.080;11.118;2023-02-04T01:27:00;99779.16;;;7.36;67.17
49759;BME280;35654;46.080;11.118;2023-02-04T01:29:27;99771.19;;;7.29;67.48
49759;BME280;35654;46.080;11.118;2023-02-04T01:31:54;99761.66;;;7.27;68.22
49759;BME280;35654;46.080;11.118;2023-02-04T01:34:19;99764.84;;;7.14;67.98
49759;BME280;35654;46.080;11.118;2023-02-04T01:36:47;99746.50;;;6.99;68.06
49759;BME280;35654;46.080;11.118;2023-02-04T01:39:14;99753.31;;;7.01;68.97
49759;BME280;35654;46.080;11.118;2023-02-04T01:41:40;99763.66;;;6.99;69.34
49759;BME280;35654;46.080;11.118;2023-02-04T01:44:07;99758.72;;;6.91;69.03
49759;BME280;35654;46.080;11.118;2023-02-04T01:46:33;99765.56;;;6.99;70.00
49759;BME280;35654;46.080;11.118;2023-02-04T01:49:03;99761.25;;;7.03;69.25
49759;BME280;35654;46.080;11.118;2023-02-04T01:51:30;99751.63;;;6.90;68.77
49759;BME280;35654;46.080;11.118;2023-02-04T01:54:00;99752.66;;;6.84;69.75
49759;BME280;35654;46.080;11.118;2023-02-04T01:56:28;99742.28;;;6.81;70.36
49759;BME280;35654;46.080;11.118;2023-02-04T01:58:56;99749.72;;;6.91;70.32
49759;BME280;35654;46.080;11.118;2023-02-04T02:01:38;99763.31;;;6.86;70.18
49759;BME280;35654;46.080;11.118;2023-02-04T02:04:28;99745.63;;;6.88;70.11
49759;BME280;35654;46.080;11.118;2023-02-04T02:06:55;99760.44;;;7.02;69.99
49759;BME280;35654;46.080;11.118;2023-02-04T02:09:24;99756.13;;;7.12;69.32
49759;BME280;35654;46.080;11.118;2023-02-04T02:11:51;99758.63;;;7.23;69.44
49759;BME280;35654;46.080;11.118;2023-02-04T02:14:18;99734.44;;;7.32;69.53
49759;BME280;35654;46.080;11.118;2023-02-04T02:16:45;99740.78;;;7.42;69.11
49759;BME280;35654;46.080;11.118;2023-02-04T02:19:14;99738.09;;;7.52;69.16
49759;BME280;35654;46.080;11.118;2023-02-04T02:24:25;99737.59;;;7.66;68.14
49759;BME280;35654;46.080;11.118;2023-02-04T02:26:53;99739.78;;;7.69;67.91
49759;BME280;35654;46.080;11.118;2023-02-04T02:29:20;99739.00;;;7.73;67.87
49759;BME280;35654;46.080;11.118;2023-02-04T02:31:47;99749.41;;;7.91;67.11
49759;BME280;35654;46.080;11.118;2023-02-04T02:34:14;99761.16;;;7.97;66.58
49759;BME280;35654;46.080;11.118;2023-02-04T02:36:40;99746.69;;;7.96;66.77
49759;BME280;35654;46.080;11.118;2023-02-04T02:39:07;99747.06;;;8.30;65.59
49759;BME280;35654;46.080;11.118;2023-02-04T02:41:33;99736.72;;;8.37;65.16
49759;BME280;35654;46.080;11.118;2023-02-04T02:44:00;99749.53;;;8.52;64.49
49759;BME280;35654;46.080;11.118;2023-02-04T02:46:27;99754.47;;;8.45;64.31
49759;BME280;35654;46.080;11.118;2023-02-04T02:48:53;99752.28;;;8.42;64.50
49759;BME280;35654;46.080;11.118;2023-02-04T02:51:20;99753.63;;;8.54;63.78
49759;BME280;35654;46.080;11.118;2023-02-04T02:53:47;99760.75;;;8.70;62.32
49759;BME280;35654;46.080;11.118;2023-02-04T02:56:15;99753.91;;;8.83;60.80
49759;BME280;35654;46.080;11.118;2023-02-04T02:58:42;99741.06;;;8.99;60.14
49759;BME280;35654;46.080;11.118;2023-02-04T03:01:09;99756.63;;;9.08;59.68
49759;BME280;35654;46.080;11.118;2023-02-04T03:03:40;99756.63;;;9.18;59.34
49759;BME280;35654;46.080;11.118;2023-02-04T03:06:17;99745.84;;;9.47;56.64
49759;BME280;35654;46.080;11.118;2023-02-04T03:08:46;99742.34;;;10.01;55.18
49759;BME280;35654;46.080;11.118;2023-02-04T03:11:13;99742.09;;;9.97;55.49
49759;BME280;35654;46.080;11.118;2023-02-04T03:13:40;99738.88;;;9.80;55.94
49759;BME280;35654;46.080;11.118;2023-02-04T03:16:06;99744.94;;;9.77;56.58
49759;BME280;35654;46.080;11.118;2023-02-04T03:18:34;99734.00;;;9.72;55.82
49759;BME280;35654;46.080;11.118;2023-02-04T03:21:01;99739.38;;;9.92;53.94
49759;BME280;35654;46.080;11.118;2023-02-04T03:23:28;99761.78;;;9.99;53.63
49759;BME280;35654;46.080;11.118;2023-02-04T03:25:54;99761.72;;;10.14;52.64
49759;BME280;35654;46.080;11.118;2023-02-04T03:28:20;99750.72;;;10.63;51.07
49759;BME280;35654;46.080;11.118;2023-02-04T03:30:47;99762.88;;;10.81;50.14
49759;BME280;35654;46.080;11.118;2023-02-04T03:33:19;99762.56;;;10.87;49.80
49759;BME280;35654;46.080;11.118;2023-02-04T03:35:45;99751.22;;;10.99;49.26
49759;BME280;35654;46.080;11.118;2023-02-04T03:38:12;99770.22;;;10.90;49.82
49759;BME280;35654;46.080;11.118;2023-02-04T03:40:38;99777.56;;;10.95;49.80
49759;BME280;35654;46.080;11.118;2023-02-04T03:43:05;99760.91;;;10.91;49.59
49759;BME280;35654;46.080;11.118;2023-02-04T03:45:30;99771.25;;;10.99;49.35
49759;BME280;35654;46.080;11.118;2023-02-04T03:47:57;99772.94;;;10.90;49.87
49759;BME280;35654;46.080;11.118;2023-02-04T03:50:24;99766.19;;;10.83;49.90
49759;BME280;35654;46.080;11.118;2023-02-04T03:52:50;99767.41;;;10.95;49.56
49759;BME280;35654;46.080;11.118;2023-02-04T03:55:19;99770.94;;;11.01;49.34
49759;BME280;35654;46.080;11.118;2023-02-04T03:57:45;99766.13;;;10.88;49.45
49759;BME280;35654;46.080;11.118;2023-02-04T04:00:12;99785.94;;;11.08;48.96
49759;BME280;35654;46.080;11.118;2023-02-04T04:02:39;99767.31;;;11.05;48.79
49759;BME280;35654;46.080;11.118;2023-02-04T04:05:06;99741.88;;;11.00;48.86
49759;BME280;35654;46.080;11.118;2023-02-04T04:07:33;99771.50;;;10.98;48.65
49759;BME280;35654;46.080;11.118;2023-02-04T04:09:59;99758.22;;;10.81;49.24
49759;BME280;35654;46.080;11.118;2023-02-04T04:12:26;99757.09;;;11.16;48.13
49759;BME280;35654;46.080;11.118;2023-02-04T04:14:52;99747.63;;;11.03;48.29
49759;BME280;35654;46.080;11.118;2023-02-04T04:17:19;99759.03;;;11.16;48.61
49759;BME280;35654;46.080;11.118;2023-02-04T04:19:46;99740.16;;;11.09;48.54
49759;BME280;35654;46.080;11.118;2023-02-04T04:22:14;99733.53;;;11.15;48.15
49759;BME280;35654;46.080;11.118;2023-02-04T04:24:41;99714.53;;;11.24;48.02
49759;BME280;35654;46.080;11.118;2023-02-04T04:27:08;99730.56;;;11.35;47.87
49759;BME280;35654;46.080;11.118;2023-02-04T04:29:35;99712.91;;;11.46;47.05
49759;BME280;35654;46.080;11.118;2023-02-04T04:32:01;99715.66;;;11.46;47.37
49759;BME280;35654;46.080;11.118;2023-02-04T04:34:27;99713.19;;;11.68;46.77
49759;BME280;35654;46.080;11.118;2023-02-04T04:36:54;99720.44;;;11.36;47.52
49759;BME280;35654;46.080;11.118;2023-02-04T04:39:21;99720.72;;;11.58;46.24
49759;BME280;35654;46.080;11.118;2023-02-04T04:41:47;99711.16;;;11.55;46.91
49759;BME280;35654;46.080;11.118;2023-02-04T04:44:14;99726.03;;;11.49;47.07
49759;BME280;35654;46.080;11.118;2023-02-04T04:46:40;99744.22;;;11.69;46.01
49759;BME280;35654;46.080;11.118;2023-02-04T04:49:07;99756.88;;;11.60;46.49
49759;BME280;35654;46.080;11.118;2023-02-04T04:51:33;99739.56;;;11.41;47.16
49759;BME280;35654;46.080;11.118;2023-02-04T04:54:00;99733.56;;;11.39;47.15
49759;BME280;35654;46.080;11.118;2023-02-04T04:56:26;99726.38;;;11.43;46.86
49759;BME280;35654;46.080;11.118;2023-02-04T04:58:53;99738.75;;;11.40;46.83
49759;BME280;35654;46.080;11.118;2023-02-04T05:01:18;99741.19;;;11.65;45.84
49759;BME280;35654;46.080;11.118;2023-02-04T05:03:45;99750.22;;;11.42;46.65
49759;BME280;35654;46.080;11.118;2023-02-04T05:06:10;99733.13;;;11.27;46.93
49759;BME280;35654;46.080;11.118;2023-02-04T05:08:37;99747.47;;;11.19;47.17
49759;BME280;35654;46.080;11.118;2023-02-04T05:11:02;99744.69;;;11.47;46.49
49759;BME280;35654;46.080;11.118;2023-02-04T05:13:27;99726.38;;;11.43;46.47
49759;BME280;35654;46.080;11.118;2023-02-04T05:15:54;99738.75;;;11.40;46.25
49759;BME280;35654;46.080;11.118;2023-02-04T05:18:21;99728.53;;;11.46;45.99
49759;BME280;35654;46.080;11.118;2023-02-04T05:20:47;99749.28;;;11.28;46.69
49759;BME280;35654;46.080;11.118;2023-02-04T05:23:14;99729.06;;;11.24;46.73
49759;BME280;35654;46.080;11.118;2023-02-04T05:25:41;99722.63;;;11.57;45.46
49759;BME280;35654;46.080;11.118;2023-02-04T05:28:07;99757.72;;;11.60;44.91
49759;BME280;35654;46.080;11.118;2023-02-04T05:30:34;99740.59;;;11.45;45.42
49759;BME280;35654;46.080;11.118;2023-02-04T05:33:00;99733.72;;;11.47;45.35
49759;BME280;35654;46.080;11.118;2023-02-04T05:35:27;99727.06;;;11.53;44.80
49759;BME280;35654;46.080;11.118;2023-02-04T05:37:54;99765.63;;;11.38;45.38
49759;BME280;35654;46.080;11.118;2023-02-04T05:40:21;99735.56;;;11.28;45.16
49759;BME280;35654;46.080;11.118;2023-02-04T05:42:48;99733.13;;;11.27;45.34
49759;BME280;35654;46.080;11.118;2023-02-04T05:45:15;99716.50;;;11.18;45.56
49759;BME280;35654;46.080;11.118;2023-02-04T05:47:42;99705.91;;;11.35;45.04
49759;BME280;35654;46.080;11.118;2023-02-04T05:50:08;99717.13;;;11.39;44.59
49759;BME280;35654;46.080;11.118;2023-02-04T05:52:35;99719.63;;;11.35;44.50
49759;BME280;35654;46.080;11.118;2023-02-04T05:55:02;99729.75;;;11.35;44.45
49759;BME280;35654;46.080;11.118;2023-02-04T05:57:28;99703.03;;;11.45;43.74
49759;BME280;35654;46.080;11.118;2023-02-04T05:59:55;99683.38;;;11.38;44.10
49759;BME280;35654;46.080;11.118;2023-02-04T06:02:22;99697.78;;;11.49;43.66
49759;BME280;35654;46.080;11.118;2023-02-04T06:04:48;99701.63;;;11.48;43.57
49759;BME280;35654;46.080;11.118;2023-02-04T06:07:15;99689.84;;;11.47;43.13
49759;BME280;35654;46.080;11.118;2023-02-04T06:09:41;99702.38;;;11.53;42.68
49759;BME280;35654;46.080;11.118;2023-02-04T06:12:08;99694.88;;;11.64;42.21
49759;BME280;35654;46.080;11.118;2023-02-04T06:14:35;99696.44;;;11.70;42.11
49759;BME280;35654;46.080;11.118;2023-02-04T06:17:02;99698.03;;;11.52;42.11
49759;BME280;35654;46.080;11.118;2023-02-04T06:19:28;99712.75;;;11.56;41.95
49759;BME280;35654;46.080;11.118;2023-02-04T06:21:54;99708.53;;;11.69;41.63
49759;BME280;35654;46.080;11.118;2023-02-04T06:24:20;99695.91;;;11.68;41.50
49759;BME280;35654;46.080;11.118;2023-02-04T06:26:46;99688.16;;;11.51;43.00
49759;BME280;35654;46.080;11.118;2023-02-04T06:29:13;99685.19;;;11.48;42.13
49759;BME280;35654;46.080;11.118;2023-02-04T06:31:39;99700.06;;;11.42;41.93
49759;BME280;35654;46.080;11.118;2023-02-04T06:34:05;99695.94;;;11.44;41.24
49759;BME280;35654;46.080;11.118;2023-02-04T06:36:32;99667.47;;;11.83;40.09
49759;BME280;35654;46.080;11.118;2023-02-04T06:38:58;99691.22;;;12.11;39.18
49759;BME280;35654;46.080;11.118;2023-02-04T06:41:25;99677.94;;;11.99;39.19
49759;BME280;35654;46.080;11.118;2023-02-04T06:43:52;99654.13;;;12.13;39.82
49759;BME280;35654;46.080;11.118;2023-02-04T06:46:18;99677.41;;;12.16;39.09
49759;BME280;35654;46.080;11.118;2023-02-04T06:48:45;99669.94;;;12.03;38.93
49759;BME280;35654;46.080;11.118;2023-02-04T06:51:12;99650.13;;;12.06;38.85
49759;BME280;35654;46.080;11.118;2023-02-04T06:53:38;99656.84;;;12.32;38.72
49759;BME280;35654;46.080;11.118;2023-02-04T06:56:04;99668.66;;;12.33;38.67
49759;BME280;35654;46.080;11.118;2023-02-04T06:58:31;99684.84;;;12.15;39.26
49759;BME280;35654;46.080;11.118;2023-02-04T07:00:57;99673.19;;;12.05;39.75
49759;BME280;35654;46.080;11.118;2023-02-04T07:03:24;99673.72;;;11.88;40.66
49759;BME280;35654;46.080;11.118;2023-02-04T07:05:50;99670.59;;;11.95;40.62
49759;BME280;35654;46.080;11.118;2023-02-04T07:08:18;99680.22;;;11.74;41.30
49759;BME280;35654;46.080;11.118;2023-02-04T07:10:45;99686.34;;;11.65;41.79
49759;BME280;35654;46.080;11.118;2023-02-04T07:13:11;99667.91;;;11.47;42.17
49759;BME280;35654;46.080;11.118;2023-02-04T07:15:36;99676.00;;;11.39;42.41
49759;BME280;35654;46.080;11.118;2023-02-04T07:18:01;99660.13;;;11.36;42.30
49759;BME280;35654;46.080;11.118;2023-02-04T07:20:26;99656.31;;;11.32;42.07
49759;BME280;35654;46.080;11.118;2023-02-04T07:22:52;99665.06;;;11.34;41.98
49759;BME280;35654;46.080;11.118;2023-02-04T07:25:17;99657.72;;;11.29;42.03
49759;BME280;35654;46.080;11.118;2023-02-04T07:27:42;99679.66;;;11.29;41.75
49759;BME280;35654;46.080;11.118;2023-02-04T07:30:08;99680.81;;;11.47;40.83
49759;BME280;35654;46.080;11.118;2023-02-04T07:32:34;99665.16;;;11.47;40.91
49759;BME280;35654;46.080;11.118;2023-02-04T07:34:59;99669.72;;;11.57;39.89
49759;BME280;35654;46.080;11.118;2023-02-04T07:37:24;99668.03;;;11.61;40.05
49759;BME280;35654;46.080;11.118;2023-02-04T07:39:51;99660.91;;;11.60;39.64
49759;BME280;35654;46.080;11.118;2023-02-04T07:42:17;99652.56;;;11.70;39.10
49759;BME280;35654;46.080;11.118;2023-02-04T07:44:43;99665.75;;;11.87;37.98
49759;BME280;35654;46.080;11.118;2023-02-04T07:47:08;99664.88;;;11.91;37.98
49759;BME280;35654;46.080;11.118;2023-02-04T07:49:33;99665.38;;;12.12;37.40
49759;BME280;35654;46.080;11.118;2023-02-04T07:51:59;99668.19;;;12.25;36.28
49759;BME280;35654;46.080;11.118;2023-02-04T07:54:24;99678.34;;;12.44;35.33
49759;BME280;35654;46.080;11.118;2023-02-04T07:56:49;99688.22;;;12.77;33.98
49759;BME280;35654;46.080;11.118;2023-02-04T07:59:14;99684.88;;;12.80;33.93
49759;BME280;35654;46.080;11.118;2023-02-04T08:01:40;99679.72;;;12.92;33.43
49759;BME280;35654;46.080;11.118;2023-02-04T08:04:05;99683.31;;;13.06;33.18
49759;BME280;35654;46.080;11.118;2023-02-04T08:06:31;99689.59;;;13.07;32.70
49759;BME280;35654;46.080;11.118;2023-02-04T08:08:56;99691.28;;;13.21;31.87
49759;BME280;35654;46.080;11.118;2023-02-04T08:11:23;99688.63;;;13.30;32.01
49759;BME280;35654;46.080;11.118;2023-02-04T08:13:49;99693.03;;;13.31;31.86
49759;BME280;35654;46.080;11.118;2023-02-04T08:16:15;99706.25;;;13.29;31.48
49759;BME280;35654;46.080;11.118;2023-02-04T08:18:41;99711.75;;;13.29;31.33
49759;BME280;35654;46.080;11.118;2023-02-04T08:21:06;99703.09;;;13.22;31.17
49759;BME280;35654;46.080;11.118;2023-02-04T08:23:31;99707.88;;;13.30;31.42
49759;BME280;35654;46.080;11.118;2023-02-04T08:25:59;99704.31;;;13.43;30.36
49759;BME280;35654;46.080;11.118;2023-02-04T08:28:24;99707.97;;;13.79;29.25
49759;BME280;35654;46.080;11.118;2023-02-04T08:30:50;99719.81;;;13.66;29.61
49759;BME280;35654;46.080;11.118;2023-02-04T08:33:15;99712.78;;;13.47;30.76
49759;BME280;35654;46.080;11.118;2023-02-04T08:35:40;99708.31;;;13.37;31.00
49759;BME280;35654;46.080;11.118;2023-02-04T08:38:06;99711.63;;;13.88;28.56
49759;BME280;35654;46.080;11.118;2023-02-04T08:40:31;99722.03;;;13.91;28.50
49759;BME280;35654;46.080;11.118;2023-02-04T08:42:56;99717.91;;;14.16;28.00
49759;BME280;35654;46.080;11.118;2023-02-04T08:45:23;99724.31;;;14.25;27.60
49759;BME280;35654;46.080;11.118;2023-02-04T08:47:48;99732.56;;;14.25;27.22
49759;BME280;35654;46.080;11.118;2023-02-04T08:50:13;99738.38;;;14.24;27.34
49759;BME280;35654;46.080;11.118;2023-02-04T08:52:39;99726.25;;;14.25;27.06
49759;BME280;35654;46.080;11.118;2023-02-04T08:55:04;99719.78;;;14.29;26.84
49759;BME280;35654;46.080;11.118;2023-02-04T08:57:29;99725.94;;;14.40;26.68
49759;BME280;35654;46.080;11.118;2023-02-04T08:59:55;99738.34;;;14.51;25.03
49759;BME280;35654;46.080;11.118;2023-02-04T09:02:21;99718.59;;;14.57;25.17
49759;BME280;35654;46.080;11.118;2023-02-04T09:04:46;99723.31;;;14.57;25.71
49759;BME280;35654;46.080;11.118;2023-02-04T09:07:12;99729.81;;;14.61;25.49
49759;BME280;35654;46.080;11.118;2023-02-04T09:09:38;99733.69;;;14.60;25.51
49759;BME280;35654;46.080;11.118;2023-02-04T09:12:05;99738.78;;;14.67;25.82
49759;BME280;35654;46.080;11.118;2023-02-04T09:14:31;99742.09;;;14.77;24.97
49759;BME280;35654;46.080;11.118;2023-02-04T09:16:58;99747.38;;;14.87;24.27
49759;BME280;35654;46.080;11.118;2023-02-04T09:19:25;99749.72;;;15.02;24.03
49759;BME280;35654;46.080;11.118;2023-02-04T09:21:52;99747.53;;;15.13;23.92
49759;BME280;35654;46.080;11.118;2023-02-04T09:24:17;99750.78;;;15.15;24.10
49759;BME280;35654;46.080;11.118;2023-02-04T09:26:43;99751.78;;;15.19;24.09
49759;BME280;35654;46.080;11.118;2023-02-04T09:29:08;99755.72;;;15.27;23.79
49759;BME280;35654;46.080;11.118;2023-02-04T09:31:34;99773.13;;;15.36;23.58
49759;BME280;35654;46.080;11.118;2023-02-04T09:33:59;99751.72;;;15.41;23.38
49759;BME280;35654;46.080;11.118;2023-02-04T09:36:24;99756.63;;;15.44;23.01
49759;BME280;35654;46.080;11.118;2023-02-04T09:38:52;99779.84;;;15.43;22.77
49759;BME280;35654;46.080;11.118;2023-02-04T09:41:22;99777.78;;;15.49;22.69
49759;BME280;35654;46.080;11.118;2023-02-04T09:43:48;99772.44;;;15.52;22.72
49759;BME280;35654;46.080;11.118;2023-02-04T09:46:18;99788.41;;;15.64;22.49
49759;BME280;35654;46.080;11.118;2023-02-04T09:48:44;99778.84;;;15.70;22.68
49759;BME280;35654;46.080;11.118;2023-02-04T09:51:17;99780.81;;;15.78;22.49
49759;BME280;35654;46.080;11.118;2023-02-04T09:53:43;99774.84;;;15.85;22.40
49759;BME280;35654;46.080;11.118;2023-02-04T09:56:08;99781.22;;;15.94;22.26
49759;BME280;35654;46.080;11.118;2023-02-04T09:58:34;99796.19;;;16.01;21.36
49759;BME280;35654;46.080;11.118;2023-02-04T10:01:04;99789.69;;;16.06;21.24
49759;BME280;35654;46.080;11.118;2023-02-04T10:03:31;99784.97;;;16.06;21.22
49759;BME280;35654;46.080;11.118;2023-02-04T10:05:58;99789.22;;;16.12;21.18
49759;BME280;35654;46.080;11.118;2023-02-04T10:08:27;99792.16;;;16.16;21.16
49759;BME280;35654;46.080;11.118;2023-02-04T10:10:54;99790.75;;;16.36;20.72
49759;BME280;35654;46.080;11.118;2023-02-04T10:13:42;99795.03;;;16.59;20.63
49759;BME280;35654;46.080;11.118;2023-02-04T10:16:18;99799.09;;;16.61;20.72
49759;BME280;35654;46.080;11.118;2023-02-04T10:18:45;99804.47;;;16.58;20.63
49759;BME280;35654;46.080;11.118;2023-02-04T10:21:21;99802.97;;;16.52;20.42
49759;BME280;35654;46.080;11.118;2023-02-04T10:23:50;99804.94;;;16.60;20.64
49759;BME280;35654;46.080;11.118;2023-02-04T10:26:19;99819.91;;;16.67;20.02
49759;BME280;35654;46.080;11.118;2023-02-04T10:28:46;99805.78;;;16.77;19.91
49759;BME280;35654;46.080;11.118;2023-02-04T10:31:30;99802.34;;;16.89;19.91
49759;BME280;35654;46.080;11.118;2023-02-04T10:36:28;99802.34;;;17.06;19.40
49759;BME280;35654;46.080;11.118;2023-02-04T10:39:00;99802.00;;;17.25;19.43
49759;BME280;35654;46.080;11.118;2023-02-04T10:41:25;99790.72;;;17.47;19.42
49759;BME280;35654;46.080;11.118;2023-02-04T10:43:54;99783.94;;;17.82;19.17
49759;BME280;35654;46.080;11.118;2023-02-04T10:46:19;99780.50;;;19.06;17.91
49759;BME280;35654;46.080;11.118;2023-02-04T10:48:45;99776.13;;;22.67;15.19
49759;BME280;35654;46.080;11.118;2023-02-04T10:51:12;99773.59;;;25.12;13.07
49759;BME280;35654;46.080;11.118;2023-02-04T10:53:37;99769.22;;;27.11;11.94
49759;BME280;35654;46.080;11.118;2023-02-04T10:56:21;99767.44;;;28.21;11.15
49759;BME280;35654;46.080;11.118;2023-02-04T10:58:46;99782.31;;;28.64;10.66
49759;BME280;35654;46.080;11.118;2023-02-04T11:01:13;99775.44;;;28.58;10.42
49759;BME280;35654;46.080;11.118;2023-02-04T11:03:39;99774.91;;;29.09;10.14
49759;BME280;35654;46.080;11.118;2023-02-04T11:06:09;99777.47;;;28.01;10.31
49759;BME280;35654;46.080;11.118;2023-02-04T11:08:35;99775.63;;;29.30;10.00
49759;BME280;35654;46.080;11.118;2023-02-04T11:11:05;99772.00;;;30.81;9.00
49759;BME280;35654;46.080;11.118;2023-02-04T11:14:17;99771.13;;;30.02;9.32
49759;BME280;35654;46.080;11.118;2023-02-04T11:18:48;99756.97;;;28.39;9.65
49759;BME280;35654;46.080;11.118;2023-02-04T11:21:19;99768.75;;;29.35;9.28
49759;BME280;35654;46.080;11.118;2023-02-04T11:23:45;99765.03;;;29.49;9.22
49759;BME280;35654;46.080;11.118;2023-02-04T11:26:12;99752.47;;;28.73;9.56
49759;BME280;35654;46.080;11.118;2023-02-04T11:28:43;99748.53;;;29.43;9.06
49759;BME280;35654;46.080;11.118;2023-02-04T11:31:24;99757.44;;;29.42;9.17
49759;BME280;35654;46.080;11.118;2023-02-04T11:39:26;99742.63;;;29.89;8.37
49759;BME280;35654;46.080;11.118;2023-02-04T11:41:53;99738.94;;;31.11;8.26
49759;BME280;35654;46.080;11.118;2023-02-04T11:44:20;99741.00;;;29.88;8.63
49759;BME280;35654;46.080;11.118;2023-02-04T11:46:54;99742.59;;;30.75;7.93
49759;BME280;35654;46.080;11.118;2023-02-04T11:49:24;99743.41;;;31.66;7.74
49759;BME280;35654;46.080;11.118;2023-02-04T11:51:50;99734.63;;;31.30;7.63
49759;BME280;35654;46.080;11.118;2023-02-04T11:54:16;99741.22;;;30.52;8.02
49759;BME280;35654;46.080;11.118;2023-02-04T11:56:46;99714.94;;;31.50;7.49
49759;BME280;35654;46.080;11.118;2023-02-04T11:59:12;99728.72;;;32.44;7.04
49759;BME280;35654;46.080;11.118;2023-02-04T12:01:38;99721.22;;;33.52;6.83
49759;BME280;35654;46.080;11.118;2023-02-04T12:04:07;99716.38;;;32.77;6.47
49759;BME280;35654;46.080;11.118;2023-02-04T12:06:34;99721.16;;;31.11;7.40
49759;BME280;35654;46.080;11.118;2023-02-04T12:09:19;99709.72;;;30.54;7.30
49759;BME280;35654;46.080;11.118;2023-02-04T12:11:54;99723.06;;;30.87;7.42
49759;BME280;35654;46.080;11.118;2023-02-04T12:14:26;99709.97;;;29.26;8.01
49759;BME280;35654;46.080;11.118;2023-02-04T12:16:53;99710.88;;;30.16;7.59
49759;BME280;35654;46.080;11.118;2023-02-04T12:19:21;99716.06;;;29.80;7.70
49759;BME280;35654;46.080;11.118;2023-02-04T12:21:48;99709.78;;;29.51;7.99
49759;BME280;35654;46.080;11.118;2023-02-04T12:24:15;99704.16;;;30.47;7.56
49759;BME280;35654;46.080;11.118;2023-02-04T12:26:42;99704.19;;;30.43;7.37
49759;BME280;35654;46.080;11.118;2023-02-04T12:29:08;99692.75;;;29.65;7.67
49759;BME280;35654;46.080;11.118;2023-02-04T12:31:35;99697.56;;;29.72;7.56
49759;BME280;35654;46.080;11.118;2023-02-04T12:34:02;99695.94;;;29.71;7.54
49759;BME280;35654;46.080;11.118;2023-02-04T12:36:28;99699.66;;;28.92;7.31
49759;BME280;35654;46.080;11.118;2023-02-04T12:38:58;99696.97;;;28.67;7.75
49759;BME280;35654;46.080;11.118;2023-02-04T12:41:25;99691.72;;;29.96;6.88
49759;BME280;35654;46.080;11.118;2023-02-04T12:43:51;99693.09;;;30.93;6.67
49759;BME280;35654;46.080;11.118;2023-02-04T12:46:20;99703.22;;;29.06;7.10
49759;BME280;35654;46.080;11.118;2023-02-04T12:48:47;99695.44;;;28.06;7.75
49759;BME280;35654;46.080;11.118;2023-02-04T12:51:14;99702.56;;;28.56;7.32
49759;BME280;35654;46.080;11.118;2023-02-04T12:53:40;99688.00;;;28.86;7.11
49759;BME280;35654;46.080;11.118;2023-02-04T12:56:07;99694.97;;;29.40;6.90
49759;BME280;35654;46.080;11.118;2023-02-04T12:58:34;99703.13;;;29.24;7.14
49759;BME280;35654;46.080;11.118;2023-02-04T13:01:00;99691.97;;;29.03;6.94
49759;BME280;35654;46.080;11.118;2023-02-04T13:03:27;99701.59;;;29.05;7.16
49759;BME280;35654;46.080;11.118;2023-02-04T13:05:54;99671.16;;;29.48;6.39
49759;BME280;35654;46.080;11.118;2023-02-04T13:08:20;99689.50;;;29.05;6.52